• Join FlightAware (Why Join?)
  • Login
  • US Flag 
01:59PM EST


 

Airport Tracker/Info


-or-


 

Live Flight TrackerFlight Track Log ✈ N961RA ✈ 16-Aug-2013 ✈ KPDK - KCAK

Flight Track Log - Related Links

Times and Time Zones

All times are in EDT time to prevent confusion due to time zone crossing. See the N961RA flight status page for this flight to view local times or setup timezone preferences in your user account.

Time Position Orientation Groundspeed Altitude Reporting Facility
EDT Latitude Longitude Course Direction KTS MPH feet Rate Location/Type
09:24AM 33.8500 -84.3333 320° Northwest 192 221 2,700  Level Atlanta TRACON
09:25AM 33.9000 -84.3833 320° Northwest 198 228 4,000 1,860 Climbing Atlanta TRACON
09:26AM 33.9586 -84.4194 333° Northwest 188 216 7,400 2,040 Climbing Atlanta Center
09:27AM 34.0169 -84.3972 18° North 194 223 9,100 1,980 Climbing Atlanta Center
09:28AM 34.0839 -84.3775 14° North 227 261 11,400 2,340 Climbing Atlanta Center
09:29AM 34.1550 -84.3778 360° North 243 280 13,800 2,220 Climbing Atlanta Center
09:30AM 34.2258 -84.3756 North 243 280 15,900 1,860 Climbing Atlanta Center
09:31AM 34.2989 -84.3733 North 238 274 17,600 1,680 Climbing Atlanta Center
09:32AM 34.3719 -84.3786 357° North 250 288 19,300 1,560 Climbing Atlanta Center
09:33AM 34.4450 -84.3789 360° North 250 288 20,800 1,440 Climbing Atlanta Center
09:34AM 34.5222 -84.3742 North 256 295 22,200 1,440 Climbing Atlanta Center
09:35AM 34.6014 -84.3719 North 276 318 23,700 1,380 Climbing Atlanta Center
09:36AM 34.6808 -84.3672 North 276 318 25,000 1,200 Climbing Atlanta Center
09:37AM 34.7622 -84.3650 North 282 325 26,100 1,020 Climbing Atlanta Center
09:38AM 34.8458 -84.3578 357° North 291 335 27,100 900 Climbing Atlanta Center
09:39AM 34.9231 -84.3478 North 298 343 27,900 900 Climbing Atlanta Center
09:40AM 35.0064 -84.3456 North 298 343 28,900 960 Climbing Atlanta Center
09:41AM 35.0961 -84.3383 North 303 349 29,900 900 Climbing Atlanta Center
09:42AM 35.1839 -84.3283 North 308 354 30,800 900 Climbing Atlanta Center
09:43AM 35.2756 -84.3186 North 314 361 31,800 840 Climbing Atlanta Center
09:44AM 35.3653 -84.3114 North 314 361 32,500 600 Climbing Atlanta Center
09:45AM 35.4594 -84.2936 North 319 367 33,000 540 Climbing Atlanta Center
09:46AM 35.5428 -84.2250 34° Northeast 331 381 33,600 480 Climbing Atlanta Center
09:47AM 35.6244 -84.1486 37° Northeast 351 404 34,000 180 Climbing Atlanta Center
09:48AM 35.7119 -84.0719 35° Northeast 366 421 34,000 120 Level Atlanta Center
09:49AM 35.8017 -83.9875 37° Northeast 388 447 34,300 420 Climbing Atlanta Center
09:50AM 35.8892 -83.9081 36° Northeast 388 447 34,900 360 Climbing Atlanta Center
09:51AM 35.9831 -83.8464 28° Northeast 389 448 35,100  Climbing Atlanta Center
09:52AM 36.0831 -83.7817 28° Northeast 389 448 35,000 -60 Descending Atlanta Center
09:53AM 36.1850 -83.7197 26° Northeast 394 453 35,000  Level Atlanta Center
09:54AM 36.2450 -83.6794 28° Northeast 407 468 35,000  Level Indianapolis Center
09:55AM 36.3481 -83.6175 26° Northeast 411 473 35,000  Level Indianapolis Center
09:56AM 36.4547 -83.5672 21° North 409 471 35,000  Level Indianapolis Center
09:57AM 36.5719 -83.5178 19° North 412 474 35,000  Level Indianapolis Center
09:58AM 36.6828 -83.4839 14° North 404 465 35,000  Level Indianapolis Center
09:59AM 36.7928 -83.4469 15° North 405 466 35,000  Level Indianapolis Center
10:00AM 36.9208 -83.3989 17° North 406 467 35,000  Level Indianapolis Center
10:01AM 37.0294 -83.3572 17° North 404 465 35,000  Level Indianapolis Center
10:02AM 37.1378 -83.3122 18° North 404 465 35,000  Level Indianapolis Center
10:03AM 37.2461 -83.2711 17° North 403 464 35,000  Level Indianapolis Center
10:04AM 37.3542 -83.2283 17° North 401 461 35,000  Level Indianapolis Center
10:05AM 37.4611 -83.1858 18° North 399 459 35,000  Level Indianapolis Center
10:06AM 37.5683 -83.1436 17° North 400 460 35,000  Level Indianapolis Center
10:07AM 37.6922 -83.0936 18° North 398 458 35,000  Level Indianapolis Center
10:08AM 37.7961 -83.0528 17° North 389 448 35,000  Level Indianapolis Center
10:09AM 37.9014 -83.0131 17° North 391 450 35,000  Level Indianapolis Center
10:10AM 38.0047 -82.9697 18° North 389 448 35,000  Level Indianapolis Center
10:11AM 38.1083 -82.9275 18° North 389 448 35,000  Level Indianapolis Center
10:12AM 38.2286 -82.8769 18° North 388 447 35,000  Level Indianapolis Center
10:13AM 38.3306 -82.8367 17° North 383 441 35,000 -420 Level Indianapolis Center
10:14AM 38.4344 -82.7944 18° North 388 447 34,200 -780 Descending Indianapolis Center
10:15AM 38.5414 -82.7492 18° North 399 459 33,400 -840 Descending Indianapolis Center
10:16AM 38.6586 -82.7022 17° North 405 466 32,500 -720 Descending Indianapolis Center
10:17AM 38.7653 -82.6589 18° North 402 463 32,000 -300 Descending Indianapolis Center
10:18AM 38.8692 -82.6167 18° North 393 452 32,000  Level Indianapolis Center
10:19AM 38.9700 -82.5756 18° North 382 440 32,000 -360 Level Indianapolis Center
10:20AM 39.0711 -82.5333 18° North 380 437 31,300 -900 Descending Indianapolis Center
10:21AM 39.1847 -82.4864 18° North 391 450 30,200 -1,020 Descending Indianapolis Center
10:22AM 39.2839 -82.4433 19° North 401 461 29,300 -1,020 Descending Indianapolis Center
10:24AM 39.4119 -82.3908 18° North 400 460 28,100 -1,080 Descending Indianapolis Center
10:25AM 39.5206 -82.3439 18° North 395 455 27,100 -1,020 Descending Indianapolis Center
10:26AM 39.6244 -82.3000 18° North 391 450 26,100 -1,020 Descending Indianapolis Center
10:27AM 39.7281 -82.2572 18° North 390 449 25,100 -1,080 Descending Indianapolis Center
10:28AM 39.8300 -82.2139 18° North 385 443 23,900 -1,380 Descending Indianapolis Center
10:29AM 39.9289 -82.1711 18° North 374 430 22,300 -1,800 Descending Indianapolis Center
10:30AM 40.0244 -82.1308 18° North 361 415 20,300 -2,100 Descending Indianapolis Center
10:31AM 40.1347 -82.0828 18° North 357 411 18,000 -1,920 Descending Indianapolis Center
10:32AM 40.2258 -82.0444 18° North 344 396 16,400 -1,560 Descending Indianapolis Center
10:33AM 40.3078 -82.0089 18° North 334 384 14,800 -1,560 Descending Indianapolis Center
10:34AM 40.3950 -81.9706 19° North 327 376 13,200 -1,500 Descending Indianapolis Center
10:35AM 40.4917 -81.9286 18° North 311 358 11,700 -1,380 Descending Indianapolis Center
10:36AM 40.5583 -81.8581 39° Northeast 307 353 10,400 -1,320 Descending Indianapolis Center
10:37AM 40.6200 -81.7964 37° Northeast 281 323 9,000 -1,620 Descending Indianapolis Center
10:38AM 40.6756 -81.7372 39° Northeast 260 299 7,100 -1,500 Descending Indianapolis Center
10:40AM 40.7828 -81.6342 36° Northeast 235 270 4,400 -1,260 Descending Indianapolis Center
10:41AM 40.8153 -81.5808 51° Northeast 203 234 3,300 -780 Descending Indianapolis Center
10:42AM 40.8506 -81.5342 45° Northeast 169 194 2,800 -600 Descending Indianapolis Center
10:43AM 40.8744 -81.5031 45° Northeast 127 146 2,000 -720 Descending Cleveland Center